Time;durP1;ratioP1;P1;durP2;ratioP2;P2;SDS_P1;SDS_P2;PMS_P1;PMS_P2;Temp;Humidity;BMP_temperature;BMP_pressure;BME280_temperature;BME280_humidity;BME280_pressure;Samples;Min_cycle;Max_cycle;Signal;HPM_P1;HPM_P2
2024/04/14 00:02:25;;;;;;;6.78;4.63;;;;;;;15.70;100.00;100681.28;7391606;19;20015;-81
2024/04/14 00:04:52;;;;;;;10.50;4.85;;;;;;;16.14;100.00;100747.00;7392755;19;20018;-80
2024/04/14 00:07:19;;;;;;;6.55;4.15;;;;;;;16.23;100.00;100759.78;7391509;19;20609;-80
2024/04/14 00:09:47;;;;;;;6.75;4.78;;;;;;;16.42;100.00;100791.50;7388475;19;20006;-82
2024/04/14 00:12:14;;;;;;;5.38;4.25;;;;;;;15.85;100.00;100694.59;7392635;19;20018;-80
2024/04/14 00:14:44;;;;;;;7.93;4.53;;;;;;;15.83;100.00;100697.38;7392542;19;20022;-80
2024/04/14 00:17:10;;;;;;;8.20;4.13;;;;;;;15.86;100.00;100691.00;7391616;19;20018;-79
2024/04/14 00:19:36;;;;;;;7.03;4.30;;;;;;;15.93;100.00;100716.31;7389017;19;20007;-79
2024/04/14 00:22:02;;;;;;;4.90;4.18;;;;;;;15.43;100.00;100624.25;7388279;19;20030;-82
2024/04/14 00:24:27;;;;;;;5.72;4.32;;;;;;;15.71;100.00;100682.16;7394405;19;20018;-81
2024/04/14 00:26:53;;;;;;;5.50;4.20;;;;;;;15.74;100.00;100666.75;7399046;19;20066;-80
2024/04/14 00:29:19;;;;;;;6.18;4.18;;;;;;;15.90;100.00;100695.19;7396869;19;20007;-81
2024/04/14 00:31:44;;;;;;;8.27;4.70;;;;;;;16.24;100.00;100745.44;7372766;19;20013;-80
2024/04/14 00:34:10;;;;;;;5.80;3.78;;;;;;;15.96;100.00;100702.78;7375630;19;20010;-81
2024/04/14 00:36:36;;;;;;;5.32;4.03;;;;;;;16.36;100.00;100760.72;7398745;19;20026;-79
2024/04/14 00:39:02;;;;;;;9.88;4.80;;;;;;;16.35;100.00;100755.47;7393635;19;20010;-79
2024/04/14 00:41:28;;;;;;;6.05;4.10;;;;;;;16.06;100.00;100711.91;7399585;19;20014;-79
2024/04/14 00:43:54;;;;;;;5.40;3.80;;;;;;;16.26;100.00;100738.19;7408815;19;20010;-82
2024/04/14 00:46:19;;;;;;;6.35;3.90;;;;;;;16.08;100.00;100713.53;7394378;19;20038;-81
2024/04/14 00:48:45;;;;;;;6.95;3.80;;;;;;;16.23;100.00;100737.53;7391331;19;20601;-81
2024/04/14 00:51:12;;;;;;;6.95;4.40;;;;;;;16.35;100.00;100756.31;7396420;19;20018;-82
2024/04/14 00:53:37;;;;;;;6.70;4.00;;;;;;;15.90;100.00;100684.50;7397708;19;20082;-81
2024/04/14 00:56:04;;;;;;;7.32;4.38;;;;;;;16.36;100.00;100759.84;7397201;19;20022;-79
2024/04/14 00:58:31;;;;;;;4.80;3.70;;;;;;;16.34;100.00;100756.41;7371791;19;20027;-81
2024/04/14 01:00:57;;;;;;;6.70;4.32;;;;;;;16.31;100.00;100756.63;7400341;19;20018;-79
2024/04/14 01:03:23;;;;;;;6.38;4.28;;;;;;;16.22;100.00;100741.16;7403116;19;20022;-79
2024/04/14 01:05:49;;;;;;;5.97;4.25;;;;;;;16.25;100.00;100747.16;7400719;19;20011;-77
2024/04/14 01:08:14;;;;;;;5.90;4.40;;;;;;;16.14;100.00;100728.31;7372901;19;20006;-78
2024/04/14 01:10:42;;;;;;;7.28;4.22;;;;;;;16.06;100.00;100718.09;7396216;19;20014;-80
2024/04/14 01:13:08;;;;;;;6.80;4.13;;;;;;;16.00;100.00;100713.19;7397930;19;20016;-80
2024/04/14 01:15:34;;;;;;;7.03;4.13;;;;;;;16.21;100.00;100752.84;7399009;19;20494;-80
2024/04/14 01:18:00;;;;;;;7.93;4.32;;;;;;;16.16;100.00;100757.59;7397218;19;20022;-80
2024/04/14 01:20:27;;;;;;;6.03;4.47;;;;;;;16.06;100.00;100754.66;7393445;19;20022;-79
2024/04/14 01:22:54;;;;;;;7.07;4.50;;;;;;;15.98;100.00;100751.63;7396377;19;20010;-80
2024/04/14 01:25:19;;;;;;;6.22;3.97;;;;;;;15.46;100.00;100664.09;7394990;19;20015;-81
2024/04/14 01:27:45;;;;;;;6.85;4.13;;;;;;;15.84;100.00;100727.59;7393404;19;20010;-80
2024/04/14 01:30:11;;;;;;;7.15;4.35;;;;;;;15.62;100.00;100691.56;7390808;19;20011;-79
2024/04/14 01:32:39;;;;;;;8.68;4.55;;;;;;;15.88;100.00;100747.84;7394011;19;20022;-80
2024/04/14 01:35:09;;;;;;;6.82;4.88;;;;;;;15.45;100.00;100675.72;7394824;19;20007;-80
2024/04/14 01:37:34;;;;;;;5.35;4.20;;;;;;;15.80;100.00;100745.63;7393841;19;20034;-80
2024/04/14 01:40:01;;;;;;;5.90;4.30;;;;;;;15.60;100.00;100717.50;7392909;19;20014;-79
2024/04/14 01:42:27;;;;;;;7.75;4.25;;;;;;;15.60;100.00;100724.66;7395215;19;20013;-80
2024/04/14 01:44:54;;;;;;;9.65;4.70;;;;;;;15.68;100.00;100739.25;7394625;19;20003;-79
2024/04/14 01:47:19;;;;;;;7.15;4.80;;;;;;;15.61;100.00;100743.25;7395655;19;20043;-81
2024/04/14 01:49:47;;;;;;;8.25;4.60;;;;;;;15.32;100.00;100722.81;7390404;19;20063;-80
2024/04/14 01:52:13;;;;;;;9.73;5.07;;;;;;;14.47;100.00;100571.59;7393987;19;20021;-80
2024/04/14 01:54:40;;;;;;;7.68;4.57;;;;;;;15.17;100.00;100694.41;7392671;19;20055;-79
2024/04/14 01:57:06;;;;;;;5.70;4.50;;;;;;;14.72;100.00;100618.94;7393949;19;20018;-79
2024/04/14 01:59:32;;;;;;;6.60;4.60;;;;;;;15.17;100.00;100721.09;7393007;19;20027;-82
2024/04/14 02:01:57;;;;;;;7.78;4.80;;;;;;;14.99;100.00;100675.03;7401128;19;20025;-79
2024/04/14 02:04:24;;;;;;;5.00;4.40;;;;;;;15.36;100.00;100737.69;7422567;19;20044;-79
2024/04/14 02:06:50;;;;;;;8.23;4.55;;;;;;;15.23;100.00;100715.38;7422581;19;20031;-78
2024/04/14 02:09:15;;;;;;;6.28;4.40;;;;;;;15.26;100.00;100717.88;7407933;19;20010;-80
2024/04/14 02:11:41;;;;;;;7.85;4.85;;;;;;;15.38;100.00;100733.13;7405510;19;20446;-80
2024/04/14 02:14:07;;;;;;;7.25;4.53;;;;;;;15.30;100.00;100724.72;7410768;19;20440;-80
2024/04/14 02:16:32;;;;;;;7.70;4.60;;;;;;;15.11;100.00;100692.13;7407144;19;20651;-79
2024/04/14 02:18:59;;;;;;;6.90;4.57;;;;;;;15.28;100.00;100723.94;7418264;19;20017;-78
2024/04/14 02:21:25;;;;;;;6.30;4.40;;;;;;;14.95;100.00;100677.03;7422354;19;20015;-77
2024/04/14 02:23:53;;;;;;;8.35;4.63;;;;;;;15.38;100.00;100739.31;7423082;19;20042;-79
2024/04/14 02:26:21;;;;;;;5.43;3.85;;;;;;;15.39;100.00;100740.19;7423058;19;20078;-78
2024/04/14 02:28:47;;;;;;;9.15;4.75;;;;;;;15.11;100.00;100700.13;7420796;19;20046;-79
2024/04/14 02:31:12;;;;;;;5.70;4.30;;;;;;;14.80;100.00;100648.63;7421465;19;20015;-78
2024/04/14 02:33:41;;;;;;;5.40;4.30;;;;;;;15.31;100.00;100731.75;7419707;19;20022;-78
2024/04/14 02:36:07;;;;;;;8.70;4.60;;;;;;;15.29;100.00;100731.84;7417680;19;20007;-80
2024/04/14 02:38:33;;;;;;;7.88;4.45;;;;;;;15.03;100.00;100685.44;7414665;19;20024;-80
2024/04/14 02:41:02;;;;;;;6.45;4.20;;;;;;;15.31;100.00;100735.28;7402990;19;20058;-80
2024/04/14 02:43:30;;;;;;;6.63;4.35;;;;;;;15.35;100.00;100734.16;7410752;19;20021;-79
2024/04/14 02:45:57;;;;;;;5.57;4.20;;;;;;;15.41;100.00;100748.94;7416930;19;20017;-79
2024/04/14 02:48:23;;;;;;;5.65;4.25;;;;;;;15.24;100.00;100720.63;7414741;19;20018;-79
2024/04/14 02:50:50;;;;;;;7.47;4.75;;;;;;;14.90;100.00;100683.63;7396317;19;20016;-80
2024/04/14 02:53:16;;;;;;;7.32;4.53;;;;;;;14.83;100.00;100655.59;7414737;19;20007;-79
2024/04/14 02:55:52;;;;;;;8.05;4.55;;;;;;;15.35;100.00;100743.97;7421107;19;20023;-81
2024/04/14 02:58:17;;;;;;;6.45;4.68;;;;;;;14.42;100.00;100586.13;7422761;19;20047;-82
2024/04/14 03:00:43;;;;;;;6.05;4.78;;;;;;;15.16;100.00;100717.56;7394956;19;20011;-78
2024/04/14 03:03:09;;;;;;;5.82;4.18;;;;;;;14.87;100.00;100683.78;7409249;19;20054;-79
2024/04/14 03:05:35;;;;;;;6.57;4.63;;;;;;;15.16;100.00;100716.69;7411082;19;20011;-78
2024/04/14 03:08:00;;;;;;;6.90;4.72;;;;;;;15.26;100.00;100734.75;7416071;19;20018;-78
2024/04/14 03:10:26;;;;;;;6.45;4.88;;;;;;;15.33;100.00;100735.19;7416631;19;20023;-78
2024/04/14 03:12:52;;;;;;;7.95;4.60;;;;;;;15.33;100.00;100745.88;7413607;19;20082;-81
2024/04/14 03:15:17;;;;;;;6.40;4.55;;;;;;;15.28;100.00;100748.81;7408510;19;20021;-79
2024/04/14 03:17:43;;;;;;;7.15;4.10;;;;;;;14.81;100.00;100674.34;7419036;19;20015;-79
2024/04/14 03:20:12;;;;;;;5.90;4.63;;;;;;;15.09;100.00;100727.75;7406185;19;20018;-80
2024/04/14 03:22:37;;;;;;;6.20;4.65;;;;;;;14.76;100.00;100681.78;7390632;19;20015;-79
2024/04/14 03:25:03;;;;;;;6.18;4.70;;;;;;;14.28;100.00;100605.56;7393000;19;20010;-79
2024/04/14 03:27:29;;;;;;;6.05;4.53;;;;;;;14.24;100.00;100604.88;7394169;19;20010;-79
2024/04/14 03:29:55;;;;;;;6.72;4.57;;;;;;;15.14;100.00;100764.81;7390460;19;20129;-80
2024/04/14 03:32:20;;;;;;;7.43;5.13;;;;;;;14.30;100.00;100622.31;7388894;19;20022;-79
2024/04/14 03:34:46;;;;;;;7.38;4.78;;;;;;;15.11;100.00;100754.31;7398049;19;20014;-80
2024/04/14 03:37:12;;;;;;;7.03;5.18;;;;;;;14.80;100.00;100717.09;7393455;19;20036;-79
2024/04/14 03:39:37;;;;;;;6.15;5.32;;;;;;;14.84;100.00;100738.16;7389030;19;20538;-78
2024/04/14 03:42:05;;;;;;;5.63;4.22;;;;;;;14.88;100.00;100761.03;7390188;19;20042;-79
2024/04/14 03:44:31;;;;;;;4.88;4.40;;;;;;;14.85;100.00;100757.69;7389372;19;20392;-81
2024/04/14 03:46:56;;;;;;;6.82;5.30;;;;;;;14.45;100.00;100704.03;7390652;19;20006;-80
2024/04/14 03:49:22;;;;;;;8.70;5.45;;;;;;;14.46;100.00;100723.56;7367146;19;20011;-81
2024/04/14 03:51:47;;;;;;;7.75;5.18;;;;;;;14.77;100.00;100774.13;7387834;19;20010;-77
2024/04/14 03:54:15;;;;;;;9.30;4.75;;;;;;;14.74;100.00;100776.97;7386760;19;20022;-80
2024/04/14 03:56:45;;;;;;;7.68;5.20;;;;;;;14.70;100.00;100770.94;7399166;19;20353;-77
2024/04/14 03:59:11;;;;;;;7.88;4.90;;;;;;;14.63;100.00;100744.75;7415213;19;20010;-77
2024/04/14 04:01:36;;;;;;;10.15;5.53;;;;;;;14.66;100.00;100752.56;7422037;19;19994;-77
2024/04/14 04:04:02;;;;;;;8.77;5.60;;;;;;;14.74;100.00;100763.66;7412254;19;21863;-78
2024/04/14 04:06:27;;;;;;;9.68;5.63;;;;;;;14.75;100.00;100776.03;7422412;19;20006;-81
2024/04/14 04:08:55;;;;;;;6.70;5.32;;;;;;;14.69;100.00;100753.25;7395345;19;20022;-78
2024/04/14 04:11:21;;;;;;;7.55;5.47;;;;;;;14.53;100.00;100725.75;7374085;19;20068;-81
2024/04/14 04:13:47;;;;;;;6.47;5.32;;;;;;;14.44;100.00;100714.78;7395656;19;20010;-78
2024/04/14 04:16:15;;;;;;;9.93;5.82;;;;;;;14.62;100.00;100754.56;7397042;19;20015;-81
2024/04/14 04:18:42;;;;;;;7.93;5.88;;;;;;;14.44;100.00;100733.44;7397138;19;21232;-79
2024/04/14 04:21:08;;;;;;;8.95;5.43;;;;;;;14.28;100.00;100718.31;7392020;19;20014;-79
2024/04/14 04:23:36;;;;;;;12.52;7.40;;;;;;;13.93;100.00;100674.16;7401201;19;20007;-77
2024/04/14 04:26:02;;;;;;;10.02;6.70;;;;;;;14.16;100.00;100723.47;7399692;19;20017;-79
2024/04/14 04:28:28;;;;;;;10.57;7.30;;;;;;;14.18;100.00;100733.06;7394135;19;20006;-79
2024/04/14 04:30:56;;;;;;;10.13;6.78;;;;;;;14.12;100.00;100732.56;7389202;19;20042;-78
2024/04/14 04:33:25;;;;;;;7.18;5.55;;;;;;;14.37;100.00;100783.50;7396927;19;20033;-79
2024/04/14 04:35:56;;;;;;;7.22;5.72;;;;;;;14.22;100.00;100785.22;7393833;19;20031;-80
2024/04/14 04:38:25;;;;;;;8.25;5.72;;;;;;;13.86;100.00;100707.38;7393714;19;20015;-80
2024/04/14 04:40:53;;;;;;;8.77;5.53;;;;;;;14.29;100.00;100778.63;7390457;19;20010;-80
2024/04/14 04:43:20;;;;;;;9.23;5.35;;;;;;;14.31;100.00;100789.19;7394787;19;20026;-78
2024/04/14 04:45:45;;;;;;;8.52;5.95;;;;;;;14.00;100.00;100737.66;7395866;19;20007;-79
2024/04/14 04:48:11;;;;;;;7.03;5.80;;;;;;;14.30;100.00;100788.34;7394273;19;20765;-80
2024/04/14 04:50:36;;;;;;;8.35;5.55;;;;;;;14.32;100.00;100782.94;7369295;19;20014;-79
2024/04/14 04:53:02;;;;;;;6.80;5.47;;;;;;;14.16;100.00;100753.63;7393857;19;21105;-79
2024/04/14 04:55:28;;;;;;;6.47;5.65;;;;;;;14.30;100.00;100779.50;7389867;19;20022;-77
2024/04/14 04:57:54;;;;;;;11.30;6.00;;;;;;;14.01;100.00;100734.00;7389705;19;20007;-78
2024/04/14 05:00:20;;;;;;;11.07;5.80;;;;;;;14.32;100.00;100767.78;7387953;19;20345;-78
2024/04/14 05:02:48;;;;;;;10.95;6.28;;;;;;;14.17;100.00;100751.78;7391998;19;20015;-77
2024/04/14 05:05:15;;;;;;;7.95;5.30;;;;;;;14.39;100.00;100793.13;7393221;19;20018;-80
2024/04/14 05:07:41;;;;;;;10.50;4.75;;;;;;;14.37;100.00;100797.69;7394595;19;20010;-79
2024/04/14 05:10:08;;;;;;;8.43;5.45;;;;;;;14.47;100.00;100822.06;7390600;19;20811;-77
2024/04/14 05:12:34;;;;;;;7.00;5.40;;;;;;;14.39;100.00;100822.44;7393160;19;20019;-77
2024/04/14 05:15:04;;;;;;;7.57;5.35;;;;;;;13.84;100.00;100749.22;7394502;19;20014;-78
2024/04/14 05:17:31;;;;;;;9.40;5.57;;;;;;;14.12;100.00;100804.47;7394242;19;20356;-76
2024/04/14 05:19:58;;;;;;;7.03;5.32;;;;;;;14.22;100.00;100829.66;7386019;19;20598;-77
2024/04/14 05:22:24;;;;;;;7.30;5.28;;;;;;;14.14;100.00;100814.09;7394192;19;20054;-77
2024/04/14 05:24:51;;;;;;;8.40;5.00;;;;;;;13.45;100.00;100691.91;7393609;19;20808;-78
2024/04/14 05:27:16;;;;;;;6.40;5.00;;;;;;;14.00;100.00;100777.59;7371685;19;20104;-78
2024/04/14 05:29:48;;;;;;;5.65;4.72;;;;;;;14.22;100.00;100805.69;7391239;19;20154;-78
2024/04/14 05:32:16;;;;;;;5.65;3.75;;;;;;;13.92;100.00;100729.22;7386016;19;20014;-78
2024/04/14 05:34:42;;;;;;;6.10;3.60;;;;;;;14.27;100.00;100771.66;7388396;19;20021;-78
2024/04/14 05:37:08;;;;;;;5.07;2.78;;;;;;;14.86;100.00;100842.06;7391240;19;20006;-78
2024/04/14 05:39:37;;;;;;;6.35;2.90;;;;;;;14.57;100.00;100761.97;7370566;19;456780;-78
2024/04/14 05:42:03;;;;;;;4.03;2.53;;;;;;;14.39;100.00;100723.00;7390378;19;20183;-79
2024/04/14 05:44:33;;;;;;;4.70;2.78;;;;;;;15.23;100.00;100840.78;7392909;19;20053;-76
2024/04/14 05:46:59;;;;;;;4.20;2.65;;;;;;;14.90;100.00;100777.78;7393981;19;20034;-77
2024/04/14 05:49:25;;;;;;;5.13;2.60;;;;;;;15.26;100.00;100816.59;7394623;19;21254;-78
2024/04/14 05:51:51;;;;;;;3.17;2.15;;;;;;;15.51;100.00;100838.16;7386593;19;20019;-79
2024/04/14 05:54:16;;;;;;;5.75;2.40;;;;;;;15.34;100.00;100800.97;7393395;19;20011;-78
2024/04/14 05:56:42;;;;;;;3.70;2.15;;;;;;;15.41;100.00;100791.66;7394223;19;20462;-79
2024/04/14 05:59:08;;;;;;;2.33;1.80;;;;;;;15.48;100.00;100790.31;7388804;19;20014;-78
2024/04/14 06:01:33;;;;;;;3.13;2.08;;;;;;;15.63;100.00;100809.91;7387934;19;20018;-78
2024/04/14 06:03:59;;;;;;;5.97;2.13;;;;;;;15.79;100.00;100832.88;7392253;19;20451;-79
2024/04/14 06:06:24;;;;;;;4.53;2.15;;;;;;;15.55;100.00;100788.13;7392434;19;20025;-78
2024/04/14 06:08:52;;;;;;;3.38;1.98;;;;;;;15.94;99.04;100848.91;7392937;19;20007;-78
2024/04/14 06:11:19;;;;;;;3.58;1.73;;;;;;;14.97;97.06;100680.47;7391151;19;20017;-77
2024/04/14 06:13:44;;;;;;;2.35;1.65;;;;;;;15.91;96.98;100822.41;7391624;19;20332;-79
2024/04/14 06:16:10;;;;;;;3.17;1.95;;;;;;;16.02;97.14;100825.28;7391176;19;20014;-77
2024/04/14 06:18:36;;;;;;;1.65;1.50;;;;;;;16.08;91.39;100832.88;7387248;19;20022;-79
2024/04/14 06:21:03;;;;;;;2.35;1.60;;;;;;;15.85;92.77;100774.72;7384517;19;20359;-79
2024/04/14 06:23:28;;;;;;;4.05;1.95;;;;;;;15.36;89.62;100679.84;7391255;19;20155;-79
2024/04/14 06:25:54;;;;;;;2.65;1.77;;;;;;;16.43;86.24;100857.38;7391203;19;20014;-78
2024/04/14 06:28:20;;;;;;;2.10;1.80;;;;;;;16.40;87.93;100862.91;7392027;19;20029;-79
2024/04/14 06:30:46;;;;;;;4.53;1.60;;;;;;;16.10;86.00;100809.59;7370819;19;20007;-78
2024/04/14 06:33:12;;;;;;;3.53;1.55;;;;;;;16.48;84.62;100869.50;7398448;19;20015;-80
2024/04/14 06:35:38;;;;;;;3.17;1.60;;;;;;;16.36;83.25;100842.72;7398602;19;20006;-79
2024/04/14 06:38:04;;;;;;;3.20;2.13;;;;;;;16.43;82.92;100858.25;7395789;19;20043;-79
2024/04/14 06:40:29;;;;;;;2.50;1.50;;;;;;;16.70;82.26;100866.31;7395395;19;20034;-76
2024/04/14 06:42:55;;;;;;;3.88;1.40;;;;;;;16.84;81.12;100863.59;7391296;19;20369;-77
2024/04/14 06:45:20;;;;;;;3.08;1.80;;;;;;;16.96;75.55;100869.13;7392809;19;20018;-79
2024/04/14 06:47:46;;;;;;;2.80;1.40;;;;;;;16.73;74.45;100826.03;7389035;19;20003;-78
2024/04/14 06:50:11;;;;;;;2.15;1.35;;;;;;;16.22;73.83;100742.03;7390008;19;20006;-77
2024/04/14 06:52:37;;;;;;;3.72;1.13;;;;;;;16.76;73.41;100816.94;7388532;19;20022;-78
2024/04/14 06:55:03;;;;;;;4.43;1.88;;;;;;;17.26;71.14;100879.63;7391493;19;20043;-78
2024/04/14 06:57:29;;;;;;;2.38;1.35;;;;;;;17.19;70.12;100837.19;7390393;19;20018;-77
2024/04/14 06:59:55;;;;;;;2.33;1.40;;;;;;;17.31;68.38;100823.97;7387728;19;20007;-78
2024/04/14 07:02:21;;;;;;;2.85;1.45;;;;;;;17.38;66.24;100836.81;7386123;19;20089;-78
2024/04/14 07:04:46;;;;;;;7.00;1.40;;;;;;;17.57;65.01;100873.03;7391715;19;20013;-78
2024/04/14 07:07:12;;;;;;;2.08;1.38;;;;;;;17.43;64.53;100847.22;7391891;19;20007;-79
2024/04/14 07:09:38;;;;;;;2.53;1.50;;;;;;;17.58;64.69;100859.53;7393198;19;20082;-78
2024/04/14 07:12:04;;;;;;;3.03;1.35;;;;;;;17.84;65.14;100868.47;7386740;19;20003;-79
2024/04/14 07:14:29;;;;;;;2.85;1.45;;;;;;;17.59;61.17;100831.81;7391490;19;20099;-80
2024/04/14 07:16:55;;;;;;;3.00;1.52;;;;;;;17.53;61.70;100833.06;7392771;19;20078;-77
2024/04/14 07:19:21;;;;;;;4.90;1.33;;;;;;;17.44;62.41;100825.69;7391969;19;20010;-79
2024/04/14 07:21:46;;;;;;;4.75;1.58;;;;;;;17.46;61.82;100820.22;7386197;19;20036;-78
2024/04/14 07:24:12;;;;;;;2.72;1.30;;;;;;;17.86;61.45;100886.16;7389196;19;20017;-79
2024/04/14 07:26:38;;;;;;;2.22;1.30;;;;;;;17.09;62.41;100731.75;7390250;19;20023;-78
2024/04/14 07:29:04;;;;;;;4.30;1.60;;;;;;;17.94;59.73;100866.03;7389563;19;20069;-80
2024/04/14 07:31:31;;;;;;;1.38;1.02;;;;;;;17.77;60.36;100852.00;7380032;19;20015;-79
2024/04/14 07:34:03;;;;;;;4.20;1.60;;;;;;;17.73;60.42;100822.84;7392236;19;20017;-78
2024/04/14 07:36:29;;;;;;;3.95;1.58;;;;;;;18.30;60.28;100889.34;7394779;19;20038;-77
2024/04/14 07:38:56;;;;;;;1.50;1.13;;;;;;;18.03;58.94;100811.78;7394045;19;20377;-78
2024/04/14 07:41:22;;;;;;;4.47;1.48;;;;;;;18.27;57.99;100871.66;7387953;19;20017;-80
2024/04/14 07:43:49;;;;;;;3.13;1.35;;;;;;;18.34;59.58;100897.09;7390023;19;20381;-79
2024/04/14 07:46:15;;;;;;;4.18;1.60;;;;;;;17.68;59.14;100766.06;7390791;19;20047;-78
2024/04/14 07:48:42;;;;;;;2.88;1.58;;;;;;;18.38;58.29;100871.78;7391075;19;20050;-81
2024/04/14 07:51:08;;;;;;;3.58;1.60;;;;;;;18.61;58.37;100898.78;7386744;19;20021;-79
2024/04/14 07:53:34;;;;;;;2.97;1.48;;;;;;;18.22;56.93;100818.41;7388824;19;20082;-79
2024/04/14 07:56:00;;;;;;;3.53;1.88;;;;;;;18.46;56.73;100834.53;7391278;19;20022;-79
2024/04/14 07:58:25;;;;;;;3.45;1.60;;;;;;;18.69;56.77;100827.50;7388988;19;20053;-78
2024/04/14 08:00:57;;;;;;;3.13;1.30;;;;;;;19.04;56.27;100864.28;7388181;19;20015;-78
2024/04/14 08:03:26;;;;;;;4.30;1.70;;;;;;;19.32;54.91;100904.19;7391454;19;20006;-78
2024/04/14 08:05:51;;;;;;;3.05;1.20;;;;;;;19.20;55.10;100894.38;7393077;19;20022;-76
2024/04/14 08:08:19;;;;;;;3.38;1.30;;;;;;;18.96;55.51;100850.56;7391658;19;20029;-78
2024/04/14 08:10:45;;;;;;;3.70;1.40;;;;;;;18.95;54.36;100879.25;7390280;19;20014;-81
2024/04/14 08:13:12;;;;;;;2.75;1.20;;;;;;;18.67;56.17;100852.75;7381476;19;20019;-78
2024/04/14 08:15:37;;;;;;;1.98;1.20;;;;;;;18.42;55.31;100830.34;7391313;19;20086;-78
2024/04/14 08:18:03;;;;;;;1.88;1.10;;;;;;;18.61;55.32;100829.03;7388101;19;20089;-78
2024/04/14 08:20:30;;;;;;;3.13;1.30;;;;;;;18.96;54.49;100862.16;7387878;19;20019;-78
2024/04/14 08:22:55;;;;;;;2.55;1.48;;;;;;;19.03;54.29;100852.69;7388987;19;20124;-76
2024/04/14 08:25:21;;;;;;;5.70;1.83;;;;;;;18.81;53.71;100798.91;7392204;19;20038;-79
2024/04/14 08:27:47;;;;;;;3.17;1.50;;;;;;;18.86;54.28;100823.59;7391275;19;20036;-78
2024/04/14 08:30:13;;;;;;;2.83;1.20;;;;;;;19.14;53.84;100865.31;7389717;19;20034;-79
2024/04/14 08:32:41;;;;;;;2.92;1.30;;;;;;;19.18;53.31;100875.72;7387818;19;20452;-80
2024/04/14 08:35:07;;;;;;;3.33;1.30;;;;;;;19.11;54.08;100873.59;7392115;19;20017;-78
2024/04/14 08:37:34;;;;;;;2.85;1.20;;;;;;;18.95;54.13;100816.66;7402363;19;20006;-78
2024/04/14 08:39:59;;;;;;;3.63;1.55;;;;;;;19.08;53.28;100839.78;7408233;19;20759;-78
2024/04/14 08:42:28;;;;;;;2.58;1.60;;;;;;;19.52;52.05;100897.34;7411936;19;20015;-77
2024/04/14 08:44:55;;;;;;;2.00;1.40;;;;;;;19.38;51.35;100830.34;7413408;19;20014;-80
2024/04/14 08:47:22;;;;;;;3.33;1.40;;;;;;;19.92;51.08;100870.94;7402911;19;20054;-78
2024/04/14 08:49:49;;;;;;;4.88;1.50;;;;;;;20.19;49.54;100873.28;7396465;19;20014;-79
2024/04/14 08:52:15;;;;;;;3.50;1.33;;;;;;;19.69;50.03;100826.19;7395977;19;20015;-78
2024/04/14 08:54:43;;;;;;;3.88;1.33;;;;;;;19.70;51.59;100841.31;7400194;19;20015;-78
2024/04/14 08:57:10;;;;;;;3.15;1.60;;;;;;;19.80;50.67;100832.44;7399124;19;20030;-79
2024/04/14 08:59:41;;;;;;;4.40;1.67;;;;;;;20.26;50.12;100893.34;7400000;19;20010;-79
2024/04/14 09:02:11;;;;;;;4.60;1.42;;;;;;;19.92;49.13;100839.53;7398988;19;20018;-78
2024/04/14 09:04:39;;;;;;;3.88;1.70;;;;;;;19.96;49.81;100875.97;7394604;19;20015;-78
2024/04/14 09:07:05;;;;;;;2.03;1.20;;;;;;;19.38;50.61;100843.78;7396421;19;20034;-79
2024/04/14 09:09:32;;;;;;;3.80;1.35;;;;;;;19.37;51.56;100875.16;7396694;19;20010;-77
2024/04/14 09:12:00;;;;;;;3.67;1.65;;;;;;;19.21;52.63;100837.00;7394785;19;20015;-78
2024/04/14 09:14:26;;;;;;;3.58;1.27;;;;;;;19.45;51.30;100872.75;7397271;19;20018;-78
2024/04/14 09:16:51;;;;;;;2.95;1.50;;;;;;;19.38;52.35;100858.06;7396470;19;20101;-79
2024/04/14 09:19:18;;;;;;;6.68;1.63;;;;;;;19.84;51.79;100895.72;7394220;19;20527;-77
2024/04/14 09:21:51;;;;;;;4.22;1.83;;;;;;;19.77;51.86;100854.19;7398814;19;20010;-79
2024/04/14 09:24:17;;;;;;;3.08;1.50;;;;;;;20.00;50.96;100894.50;7398499;19;20020;-78
2024/04/14 09:26:44;;;;;;;4.60;2.10;;;;;;;20.06;51.87;100876.09;7396691;19;20018;-78
2024/04/14 09:29:09;;;;;;;3.38;1.95;;;;;;;20.19;49.77;100886.72;7397703;19;20023;-81
2024/04/14 09:31:37;;;;;;;3.53;1.45;;;;;;;19.96;50.17;100864.34;7397142;19;20028;-81
2024/04/14 09:34:04;;;;;;;3.63;1.70;;;;;;;19.82;50.92;100895.00;7399660;19;20025;-80
2024/04/14 09:36:29;;;;;;;2.58;1.50;;;;;;;19.72;51.39;100898.50;7397398;19;20364;-79
2024/04/14 09:39:01;;;;;;;2.70;1.60;;;;;;;19.62;51.54;100909.09;7395926;19;20031;-79
2024/04/14 09:41:27;;;;;;;4.20;1.48;;;;;;;19.67;51.28;100900.72;7397648;19;20368;-79
2024/04/14 09:43:55;;;;;;;4.28;1.38;;;;;;;19.40;51.64;100866.88;7395374;19;20007;-80
2024/04/14 09:46:21;;;;;;;2.47;1.23;;;;;;;19.50;51.68;100862.56;7394980;19;20037;-78
2024/04/14 09:48:49;;;;;;;3.55;1.58;;;;;;;19.55;51.03;100849.59;7394404;19;20015;-78
2024/04/14 09:51:16;;;;;;;3.67;1.58;;;;;;;19.54;51.53;100837.16;7392132;19;20039;-79
2024/04/14 09:53:42;;;;;;;2.70;1.60;;;;;;;20.05;51.03;100895.88;7391454;19;20010;-81
2024/04/14 09:56:08;;;;;;;2.63;1.45;;;;;;;19.93;50.99;100861.91;7387799;19;20019;-78
2024/04/14 09:58:34;;;;;;;3.65;1.33;;;;;;;20.10;51.05;100882.09;7392991;19;20123;-79
2024/04/14 10:01:06;;;;;;;4.05;1.35;;;;;;;19.99;50.96;100847.13;7389283;19;20013;-79
2024/04/14 10:03:34;;;;;;;1.77;1.40;;;;;;;20.32;50.58;100874.84;7394079;19;20018;-79
2024/04/14 10:06:01;;;;;;;3.70;1.55;;;;;;;20.02;49.92;100817.28;7393888;19;20013;-79
2024/04/14 10:08:34;;;;;;;5.50;1.85;;;;;;;20.48;49.92;100887.13;7395260;19;20022;-78
2024/04/14 10:11:04;;;;;;;3.95;1.45;;;;;;;19.99;49.43;100809.50;7391747;19;20547;-79
2024/04/14 10:13:46;;;;;;;4.15;1.60;;;;;;;20.45;50.28;100887.38;7394984;19;20018;-79
2024/04/14 10:16:17;;;;;;;4.25;1.70;;;;;;;20.47;49.41;100875.50;7393975;19;20030;-78
2024/04/14 10:18:43;;;;;;;3.05;1.50;;;;;;;20.41;49.24;100881.38;7395928;19;20023;-78
2024/04/14 10:21:17;;;;;;;2.83;1.80;;;;;;;20.31;50.81;100870.47;7392854;19;20014;-78
2024/04/14 10:23:47;;;;;;;4.50;1.63;;;;;;;20.72;49.80;100884.28;7392036;19;20002;-77
2024/04/14 10:26:19;;;;;;;5.07;1.70;;;;;;;20.83;49.72;100868.09;7360232;19;20537;-79
2024/04/14 10:28:49;;;;;;;3.35;1.48;;;;;;;20.70;49.01;100859.34;7393723;19;20014;-79
2024/04/14 10:31:24;;;;;;;3.33;1.77;;;;;;;20.90;49.97;100886.31;7396487;19;20033;-79
2024/04/14 10:34:02;;;;;;;5.22;1.58;;;;;;;21.08;49.67;100864.25;7390360;19;20499;-79
2024/04/14 10:36:28;;;;;;;2.03;1.20;;;;;;;21.32;49.01;100849.59;7396589;19;20029;-78
2024/04/14 10:38:57;;;;;;;2.83;0.90;;;;;;;21.48;47.63;100853.69;7396395;19;20451;-79
2024/04/14 10:41:22;;;;;;;2.47;1.40;;;;;;;20.89;47.87;100806.56;7391242;19;20021;-80
2024/04/14 10:43:49;;;;;;;3.65;1.33;;;;;;;20.57;48.80;100805.66;7366659;19;20014;-78
2024/04/14 10:46:15;;;;;;;5.43;1.60;;;;;;;20.56;49.27;100798.56;7394357;19;20018;-80
2024/04/14 10:48:43;;;;;;;2.10;1.45;;;;;;;20.78;48.74;100813.81;7396483;19;20467;-79
2024/04/14 10:51:09;;;;;;;2.13;1.08;;;;;;;20.87;48.97;100830.03;7394140;19;20030;-79
2024/04/14 10:53:35;;;;;;;3.15;1.25;;;;;;;20.96;49.42;100839.19;7393744;19;20498;-80
2024/04/14 10:56:03;;;;;;;1.52;1.10;;;;;;;20.72;48.27;100784.72;7394729;19;20015;-80
2024/04/14 10:58:30;;;;;;;2.70;1.75;;;;;;;20.93;48.15;100834.06;7394420;19;20014;-79
2024/04/14 11:00:56;;;;;;;3.88;1.70;;;;;;;21.16;48.38;100854.53;7393964;19;20010;-79
2024/04/14 11:03:23;;;;;;;3.38;1.40;;;;;;;21.26;48.61;100830.38;7390557;19;20014;-78
2024/04/14 11:05:53;;;;;;;1.83;1.27;;;;;;;21.55;48.58;100847.66;7392434;19;20014;-78
2024/04/14 11:08:19;;;;;;;4.88;1.52;;;;;;;21.92;47.28;100844.44;7388795;19;20038;-78
2024/04/14 11:10:46;;;;;;;3.35;1.42;;;;;;;21.76;47.06;100785.63;7370767;19;20014;-79
2024/04/14 11:13:16;;;;;;;2.30;1.40;;;;;;;22.28;47.21;100826.91;7392004;19;20014;-79
2024/04/14 11:15:46;;;;;;;2.33;1.33;;;;;;;22.23;45.98;100781.44;7420013;19;20009;-78
2024/04/14 11:18:11;;;;;;;3.90;1.75;;;;;;;22.09;45.07;100795.31;7394757;19;20010;-80